sensor_id;sensor_type;location;lat;lon;timestamp;temperature;humidity
48752;DHT22;34544;48.836;9.174;2023-02-28T00:00:20;-1.80;99.90
48752;DHT22;34544;48.836;9.174;2023-02-28T00:02:46;-1.80;99.90
48752;DHT22;34544;48.836;9.174;2023-02-28T00:05:14;-1.80;99.90
48752;DHT22;34544;48.836;9.174;2023-02-28T00:07:40;-1.80;99.90
48752;DHT22;34544;48.836;9.174;2023-02-28T00:10:09;-1.80;99.90
48752;DHT22;34544;48.836;9.174;2023-02-28T00:12:35;-1.80;99.90
48752;DHT22;34544;48.836;9.174;2023-02-28T00:15:03;-1.80;99.90
48752;DHT22;34544;48.836;9.174;2023-02-28T00:17:30;-1.80;99.90
48752;DHT22;34544;48.836;9.174;2023-02-28T00:19:56;-1.80;99.90
48752;DHT22;34544;48.836;9.174;2023-02-28T00:22:22;-1.80;99.90
48752;DHT22;34544;48.836;9.174;2023-02-28T00:24:48;-1.80;99.90
48752;DHT22;34544;48.836;9.174;2023-02-28T00:27:14;-1.80;99.90
48752;DHT22;34544;48.836;9.174;2023-02-28T00:29:40;-1.80;99.90
48752;DHT22;34544;48.836;9.174;2023-02-28T00:32:06;-1.80;99.90
48752;DHT22;34544;48.836;9.174;2023-02-28T00:34:32;-1.80;99.90
48752;DHT22;34544;48.836;9.174;2023-02-28T00:37:07;-1.80;99.90
48752;DHT22;34544;48.836;9.174;2023-02-28T00:39:35;-1.80;99.90
48752;DHT22;34544;48.836;9.174;2023-02-28T00:42:01;-1.90;99.90
48752;DHT22;34544;48.836;9.174;2023-02-28T00:44:28;-1.90;99.90
48752;DHT22;34544;48.836;9.174;2023-02-28T00:46:53;-1.90;99.90
48752;DHT22;34544;48.836;9.174;2023-02-28T00:49:24;-1.80;99.90
48752;DHT22;34544;48.836;9.174;2023-02-28T00:51:50;-1.80;99.90
48752;DHT22;34544;48.836;9.174;2023-02-28T00:54:18;-1.80;99.90
48752;DHT22;34544;48.836;9.174;2023-02-28T00:56:47;-1.80;99.90
48752;DHT22;34544;48.836;9.174;2023-02-28T00:59:13;-1.90;99.90
48752;DHT22;34544;48.836;9.174;2023-02-28T01:01:39;-1.80;99.90
48752;DHT22;34544;48.836;9.174;2023-02-28T01:04:05;-1.90;99.90
48752;DHT22;34544;48.836;9.174;2023-02-28T01:06:31;-1.90;99.90
48752;DHT22;34544;48.836;9.174;2023-02-28T01:08:58;-1.80;99.90
48752;DHT22;34544;48.836;9.174;2023-02-28T01:11:24;-1.90;99.90
48752;DHT22;34544;48.836;9.174;2023-02-28T01:13:52;-1.90;99.90
48752;DHT22;34544;48.836;9.174;2023-02-28T01:16:18;-1.90;99.90
48752;DHT22;34544;48.836;9.174;2023-02-28T01:18:44;-1.90;99.90
48752;DHT22;34544;48.836;9.174;2023-02-28T01:21:14;-1.90;99.90
48752;DHT22;34544;48.836;9.174;2023-02-28T01:23:41;-1.90;99.90
48752;DHT22;34544;48.836;9.174;2023-02-28T01:26:14;-1.90;99.90
48752;DHT22;34544;48.836;9.174;2023-02-28T01:28:40;-1.90;99.90
48752;DHT22;34544;48.836;9.174;2023-02-28T01:31:07;-1.90;99.90
48752;DHT22;34544;48.836;9.174;2023-02-28T01:33:34;-1.90;99.90
48752;DHT22;34544;48.836;9.174;2023-02-28T01:36:10;-1.90;99.90
48752;DHT22;34544;48.836;9.174;2023-02-28T01:38:36;-1.90;99.90
48752;DHT22;34544;48.836;9.174;2023-02-28T01:41:02;-1.90;99.90
48752;DHT22;34544;48.836;9.174;2023-02-28T01:43:30;-1.90;99.90
48752;DHT22;34544;48.836;9.174;2023-02-28T01:45:57;-1.90;99.90
48752;DHT22;34544;48.836;9.174;2023-02-28T01:48:32;-1.90;99.90
48752;DHT22;34544;48.836;9.174;2023-02-28T01:51:04;-1.90;99.90
48752;DHT22;34544;48.836;9.174;2023-02-28T01:53:37;-1.90;99.90
48752;DHT22;34544;48.836;9.174;2023-02-28T01:56:07;-2.00;99.90
48752;DHT22;34544;48.836;9.174;2023-02-28T01:58:34;-2.00;99.90
48752;DHT22;34544;48.836;9.174;2023-02-28T02:01:00;-2.00;99.90
48752;DHT22;34544;48.836;9.174;2023-02-28T02:03:29;-2.00;99.90
48752;DHT22;34544;48.836;9.174;2023-02-28T02:05:55;-2.00;99.90
48752;DHT22;34544;48.836;9.174;2023-02-28T02:08:26;-2.00;99.90
48752;DHT22;34544;48.836;9.174;2023-02-28T02:10:56;-2.00;99.90
48752;DHT22;34544;48.836;9.174;2023-02-28T02:13:50;-2.00;99.90
48752;DHT22;34544;48.836;9.174;2023-02-28T02:16:36;-2.00;99.90
48752;DHT22;34544;48.836;9.174;2023-02-28T02:22:37;-2.00;99.90
48752;DHT22;34544;48.836;9.174;2023-02-28T02:25:19;-1.90;99.90
48752;DHT22;34544;48.836;9.174;2023-02-28T02:36:16;-1.80;99.90
48752;DHT22;34544;48.836;9.174;2023-02-28T02:38:53;-1.70;99.90
48752;DHT22;34544;48.836;9.174;2023-02-28T02:44:55;-1.70;99.90
48752;DHT22;34544;48.836;9.174;2023-02-28T02:47:14;-1.60;99.90
48752;DHT22;34544;48.836;9.174;2023-02-28T02:49:45;-1.50;99.90
48752;DHT22;34544;48.836;9.174;2023-02-28T02:52:14;-1.50;99.90
48752;DHT22;34544;48.836;9.174;2023-02-28T02:54:42;-1.40;99.90
48752;DHT22;34544;48.836;9.174;2023-02-28T02:57:23;-1.40;99.90
48752;DHT22;34544;48.836;9.174;2023-02-28T02:59:51;-1.40;99.90
48752;DHT22;34544;48.836;9.174;2023-02-28T03:02:21;-1.30;99.90
48752;DHT22;34544;48.836;9.174;2023-02-28T03:04:57;-1.30;99.90
48752;DHT22;34544;48.836;9.174;2023-02-28T03:07:27;-1.20;99.90
48752;DHT22;34544;48.836;9.174;2023-02-28T03:09:54;-1.20;99.90
48752;DHT22;34544;48.836;9.174;2023-02-28T03:12:24;-1.20;99.90
48752;DHT22;34544;48.836;9.174;2023-02-28T03:15:21;-1.20;99.90
48752;DHT22;34544;48.836;9.174;2023-02-28T03:18:06;-1.10;99.90
48752;DHT22;34544;48.836;9.174;2023-02-28T03:20:58;-1.10;99.90
48752;DHT22;34544;48.836;9.174;2023-02-28T03:23:54;-1.10;99.90
48752;DHT22;34544;48.836;9.174;2023-02-28T03:26:24;-1.10;99.90
48752;DHT22;34544;48.836;9.174;2023-02-28T03:31:58;-1.00;99.90
48752;DHT22;34544;48.836;9.174;2023-02-28T03:34:38;-0.90;99.90
48752;DHT22;34544;48.836;9.174;2023-02-28T03:37:11;-0.90;99.90
48752;DHT22;34544;48.836;9.174;2023-02-28T03:39:59;-0.90;99.90
48752;DHT22;34544;48.836;9.174;2023-02-28T03:42:31;-0.90;99.90
48752;DHT22;34544;48.836;9.174;2023-02-28T03:45:00;-0.80;99.90
48752;DHT22;34544;48.836;9.174;2023-02-28T03:47:44;-0.80;99.90
48752;DHT22;34544;48.836;9.174;2023-02-28T03:50:22;-0.80;99.90
48752;DHT22;34544;48.836;9.174;2023-02-28T03:55:29;-0.80;99.90
48752;DHT22;34544;48.836;9.174;2023-02-28T03:58:04;-0.80;99.90
48752;DHT22;34544;48.836;9.174;2023-02-28T04:00:34;-0.70;99.90
48752;DHT22;34544;48.836;9.174;2023-02-28T04:03:01;-0.70;99.90
48752;DHT22;34544;48.836;9.174;2023-02-28T04:05:27;-0.70;99.90
48752;DHT22;34544;48.836;9.174;2023-02-28T04:07:54;-0.70;99.90
48752;DHT22;34544;48.836;9.174;2023-02-28T04:10:28;-0.70;99.90
48752;DHT22;34544;48.836;9.174;2023-02-28T04:12:54;-0.70;99.90
48752;DHT22;34544;48.836;9.174;2023-02-28T04:15:19;-0.60;99.90
48752;DHT22;34544;48.836;9.174;2023-02-28T04:17:48;-0.70;99.90
48752;DHT22;34544;48.836;9.174;2023-02-28T04:20:13;-0.60;99.90
48752;DHT22;34544;48.836;9.174;2023-02-28T04:22:39;-0.60;99.90
48752;DHT22;34544;48.836;9.174;2023-02-28T04:25:05;-0.50;99.90
48752;DHT22;34544;48.836;9.174;2023-02-28T04:27:31;-0.50;99.90
48752;DHT22;34544;48.836;9.174;2023-02-28T04:29:57;-0.50;99.90
48752;DHT22;34544;48.836;9.174;2023-02-28T04:32:22;-0.50;99.90
48752;DHT22;34544;48.836;9.174;2023-02-28T04:34:48;-0.40;99.90
48752;DHT22;34544;48.836;9.174;2023-02-28T04:37:13;-0.40;99.90
48752;DHT22;34544;48.836;9.174;2023-02-28T04:39:40;-0.40;99.90
48752;DHT22;34544;48.836;9.174;2023-02-28T04:42:06;-0.40;99.90
48752;DHT22;34544;48.836;9.174;2023-02-28T04:44:32;-0.40;99.90
48752;DHT22;34544;48.836;9.174;2023-02-28T04:46:57;-0.40;99.90
48752;DHT22;34544;48.836;9.174;2023-02-28T04:49:23;-0.40;99.90
48752;DHT22;34544;48.836;9.174;2023-02-28T04:51:48;-0.30;99.90
48752;DHT22;34544;48.836;9.174;2023-02-28T04:54:15;-0.30;99.90
48752;DHT22;34544;48.836;9.174;2023-02-28T04:56:41;-0.30;99.90
48752;DHT22;34544;48.836;9.174;2023-02-28T04:59:07;-0.30;99.90
48752;DHT22;34544;48.836;9.174;2023-02-28T05:01:33;-0.30;99.90
48752;DHT22;34544;48.836;9.174;2023-02-28T05:04:01;-0.30;99.90
48752;DHT22;34544;48.836;9.174;2023-02-28T05:06:29;-0.30;99.90
48752;DHT22;34544;48.836;9.174;2023-02-28T05:08:55;-0.20;99.90
48752;DHT22;34544;48.836;9.174;2023-02-28T05:11:30;-0.20;99.90
48752;DHT22;34544;48.836;9.174;2023-02-28T05:14:03;-0.20;99.90
48752;DHT22;34544;48.836;9.174;2023-02-28T05:16:30;-0.10;99.90
48752;DHT22;34544;48.836;9.174;2023-02-28T05:18:56;0.00;99.90
48752;DHT22;34544;48.836;9.174;2023-02-28T05:24:20;0.10;99.90
48752;DHT22;34544;48.836;9.174;2023-02-28T05:26:49;0.10;99.90
48752;DHT22;34544;48.836;9.174;2023-02-28T05:29:16;0.10;99.90
48752;DHT22;34544;48.836;9.174;2023-02-28T05:31:42;0.10;99.90
48752;DHT22;34544;48.836;9.174;2023-02-28T05:34:07;0.10;99.90
48752;DHT22;34544;48.836;9.174;2023-02-28T05:36:33;0.10;99.90
48752;DHT22;34544;48.836;9.174;2023-02-28T05:39:01;0.00;99.90
48752;DHT22;34544;48.836;9.174;2023-02-28T05:41:29;0.00;99.90
48752;DHT22;34544;48.836;9.174;2023-02-28T05:43:55;0.00;99.90
48752;DHT22;34544;48.836;9.174;2023-02-28T05:46:22;0.00;99.90
48752;DHT22;34544;48.836;9.174;2023-02-28T05:48:48;0.00;99.90
48752;DHT22;34544;48.836;9.174;2023-02-28T05:51:14;0.00;99.90
48752;DHT22;34544;48.836;9.174;2023-02-28T05:53:40;-0.10;99.90
48752;DHT22;34544;48.836;9.174;2023-02-28T05:56:06;-0.10;99.90
48752;DHT22;34544;48.836;9.174;2023-02-28T05:58:31;-0.10;99.90
48752;DHT22;34544;48.836;9.174;2023-02-28T06:00:58;-0.10;99.90
48752;DHT22;34544;48.836;9.174;2023-02-28T06:03:24;-0.10;99.90
48752;DHT22;34544;48.836;9.174;2023-02-28T06:05:50;-0.10;99.90
48752;DHT22;34544;48.836;9.174;2023-02-28T06:08:16;0.00;99.90
48752;DHT22;34544;48.836;9.174;2023-02-28T06:10:41;0.00;99.90
48752;DHT22;34544;48.836;9.174;2023-02-28T06:13:07;0.00;99.90
48752;DHT22;34544;48.836;9.174;2023-02-28T06:15:33;0.00;99.90
48752;DHT22;34544;48.836;9.174;2023-02-28T06:17:59;0.00;99.90
48752;DHT22;34544;48.836;9.174;2023-02-28T06:20:26;0.00;99.90
48752;DHT22;34544;48.836;9.174;2023-02-28T06:22:56;0.10;99.90
48752;DHT22;34544;48.836;9.174;2023-02-28T06:25:25;0.10;99.90
48752;DHT22;34544;48.836;9.174;2023-02-28T06:27:51;0.10;99.90
48752;DHT22;34544;48.836;9.174;2023-02-28T06:30:16;0.20;99.90
48752;DHT22;34544;48.836;9.174;2023-02-28T06:32:42;0.20;99.90
48752;DHT22;34544;48.836;9.174;2023-02-28T06:35:09;0.20;99.90
48752;DHT22;34544;48.836;9.174;2023-02-28T06:37:35;0.20;99.90
48752;DHT22;34544;48.836;9.174;2023-02-28T06:40:01;0.30;99.90
48752;DHT22;34544;48.836;9.174;2023-02-28T06:42:27;0.30;99.90
48752;DHT22;34544;48.836;9.174;2023-02-28T06:44:55;0.30;99.90
48752;DHT22;34544;48.836;9.174;2023-02-28T06:47:21;0.30;99.90
48752;DHT22;34544;48.836;9.174;2023-02-28T06:49:47;0.40;99.90
48752;DHT22;34544;48.836;9.174;2023-02-28T06:52:14;0.40;99.90
48752;DHT22;34544;48.836;9.174;2023-02-28T06:54:40;0.40;99.90
48752;DHT22;34544;48.836;9.174;2023-02-28T06:57:06;0.40;99.90
48752;DHT22;34544;48.836;9.174;2023-02-28T06:59:32;0.40;99.90
48752;DHT22;34544;48.836;9.174;2023-02-28T07:01:57;0.40;99.90
48752;DHT22;34544;48.836;9.174;2023-02-28T07:04:23;0.50;99.90
48752;DHT22;34544;48.836;9.174;2023-02-28T07:06:49;0.40;99.90
48752;DHT22;34544;48.836;9.174;2023-02-28T07:09:14;0.40;99.90
48752;DHT22;34544;48.836;9.174;2023-02-28T07:11:40;0.50;99.90
48752;DHT22;34544;48.836;9.174;2023-02-28T07:14:08;0.40;99.90
48752;DHT22;34544;48.836;9.174;2023-02-28T07:16:35;0.50;99.90
48752;DHT22;34544;48.836;9.174;2023-02-28T07:19:00;0.50;99.90
48752;DHT22;34544;48.836;9.174;2023-02-28T07:21:26;0.50;99.90
48752;DHT22;34544;48.836;9.174;2023-02-28T07:23:52;0.50;99.90
48752;DHT22;34544;48.836;9.174;2023-02-28T07:26:18;0.50;99.90
48752;DHT22;34544;48.836;9.174;2023-02-28T07:28:46;0.50;99.90
48752;DHT22;34544;48.836;9.174;2023-02-28T07:31:14;0.50;99.90
48752;DHT22;34544;48.836;9.174;2023-02-28T07:33:40;0.50;99.90
48752;DHT22;34544;48.836;9.174;2023-02-28T07:36:08;0.60;99.90
48752;DHT22;34544;48.836;9.174;2023-02-28T07:38:38;0.60;99.90
48752;DHT22;34544;48.836;9.174;2023-02-28T07:41:04;0.60;99.90
48752;DHT22;34544;48.836;9.174;2023-02-28T07:43:31;0.70;99.90
48752;DHT22;34544;48.836;9.174;2023-02-28T07:46:05;0.70;99.90
48752;DHT22;34544;48.836;9.174;2023-02-28T07:48:32;0.70;99.90
48752;DHT22;34544;48.836;9.174;2023-02-28T07:50:58;0.70;99.90
48752;DHT22;34544;48.836;9.174;2023-02-28T07:53:24;0.70;99.90
48752;DHT22;34544;48.836;9.174;2023-02-28T07:55:50;0.80;99.90
48752;DHT22;34544;48.836;9.174;2023-02-28T07:58:16;0.80;99.90
48752;DHT22;34544;48.836;9.174;2023-02-28T08:00:42;0.90;99.90
48752;DHT22;34544;48.836;9.174;2023-02-28T08:03:11;0.90;99.90
48752;DHT22;34544;48.836;9.174;2023-02-28T08:05:41;0.90;99.90
48752;DHT22;34544;48.836;9.174;2023-02-28T08:08:07;0.90;99.90
48752;DHT22;34544;48.836;9.174;2023-02-28T08:10:33;0.90;99.90
48752;DHT22;34544;48.836;9.174;2023-02-28T08:12:59;0.90;99.90
48752;DHT22;34544;48.836;9.174;2023-02-28T08:15:25;0.90;99.90
48752;DHT22;34544;48.836;9.174;2023-02-28T08:17:51;0.90;99.90
48752;DHT22;34544;48.836;9.174;2023-02-28T08:20:17;0.90;99.90
48752;DHT22;34544;48.836;9.174;2023-02-28T08:22:42;0.90;99.90
48752;DHT22;34544;48.836;9.174;2023-02-28T08:25:08;1.00;99.90
48752;DHT22;34544;48.836;9.174;2023-02-28T08:27:34;1.00;99.90
48752;DHT22;34544;48.836;9.174;2023-02-28T08:30:00;1.10;99.90
48752;DHT22;34544;48.836;9.174;2023-02-28T08:32:26;1.10;99.90
48752;DHT22;34544;48.836;9.174;2023-02-28T08:34:51;1.10;99.90
48752;DHT22;34544;48.836;9.174;2023-02-28T08:37:17;1.10;99.90
48752;DHT22;34544;48.836;9.174;2023-02-28T08:39:43;1.20;99.90
48752;DHT22;34544;48.836;9.174;2023-02-28T08:42:08;1.20;99.90
48752;DHT22;34544;48.836;9.174;2023-02-28T08:44:34;1.30;99.90
48752;DHT22;34544;48.836;9.174;2023-02-28T08:47:00;1.30;99.90
48752;DHT22;34544;48.836;9.174;2023-02-28T08:49:26;1.30;99.90
48752;DHT22;34544;48.836;9.174;2023-02-28T08:51:51;1.40;99.90
48752;DHT22;34544;48.836;9.174;2023-02-28T08:54:17;1.40;99.90
48752;DHT22;34544;48.836;9.174;2023-02-28T08:56:45;1.40;99.90
48752;DHT22;34544;48.836;9.174;2023-02-28T08:59:13;1.50;99.90
48752;DHT22;34544;48.836;9.174;2023-02-28T09:01:39;1.50;99.90
48752;DHT22;34544;48.836;9.174;2023-02-28T09:04:06;1.50;99.90
48752;DHT22;34544;48.836;9.174;2023-02-28T09:06:34;1.60;99.90
48752;DHT22;34544;48.836;9.174;2023-02-28T09:09:00;1.70;99.90
48752;DHT22;34544;48.836;9.174;2023-02-28T09:11:27;1.70;99.90
48752;DHT22;34544;48.836;9.174;2023-02-28T09:13:53;1.80;99.90
48752;DHT22;34544;48.836;9.174;2023-02-28T09:16:18;1.90;99.90
48752;DHT22;34544;48.836;9.174;2023-02-28T09:18:44;2.00;99.90
48752;DHT22;34544;48.836;9.174;2023-02-28T09:21:13;2.00;99.90
48752;DHT22;34544;48.836;9.174;2023-02-28T09:23:43;2.10;99.90
48752;DHT22;34544;48.836;9.174;2023-02-28T09:26:21;2.10;99.90
48752;DHT22;34544;48.836;9.174;2023-02-28T09:28:47;2.20;99.90
48752;DHT22;34544;48.836;9.174;2023-02-28T09:31:16;2.30;99.90
48752;DHT22;34544;48.836;9.174;2023-02-28T09:33:42;2.40;99.90
48752;DHT22;34544;48.836;9.174;2023-02-28T09:36:08;2.40;99.90
48752;DHT22;34544;48.836;9.174;2023-02-28T09:38:34;2.40;99.90
48752;DHT22;34544;48.836;9.174;2023-02-28T09:41:03;2.40;99.90
48752;DHT22;34544;48.836;9.174;2023-02-28T09:43:35;2.40;99.90
48752;DHT22;34544;48.836;9.174;2023-02-28T09:48:50;2.50;99.90
48752;DHT22;34544;48.836;9.174;2023-02-28T09:54:01;2.60;99.90
48752;DHT22;34544;48.836;9.174;2023-02-28T09:56:36;2.60;99.90
48752;DHT22;34544;48.836;9.174;2023-02-28T09:59:28;2.60;99.90
48752;DHT22;34544;48.836;9.174;2023-02-28T10:02:01;2.70;99.90
48752;DHT22;34544;48.836;9.174;2023-02-28T10:04:53;2.80;99.90
48752;DHT22;34544;48.836;9.174;2023-02-28T10:09:56;3.00;99.90
48752;DHT22;34544;48.836;9.174;2023-02-28T10:12:24;3.10;99.90
48752;DHT22;34544;48.836;9.174;2023-02-28T10:14:52;3.20;99.90
48752;DHT22;34544;48.836;9.174;2023-02-28T10:17:21;3.40;99.90
48752;DHT22;34544;48.836;9.174;2023-02-28T10:22:21;3.70;99.90
48752;DHT22;34544;48.836;9.174;2023-02-28T10:24:51;3.80;99.90
48752;DHT22;34544;48.836;9.174;2023-02-28T10:27:22;3.90;99.90
48752;DHT22;34544;48.836;9.174;2023-02-28T10:29:53;4.00;99.90
48752;DHT22;34544;48.836;9.174;2023-02-28T10:32:33;4.00;99.90
48752;DHT22;34544;48.836;9.174;2023-02-28T10:37:27;4.00;99.90
48752;DHT22;34544;48.836;9.174;2023-02-28T10:39:53;4.00;99.90
48752;DHT22;34544;48.836;9.174;2023-02-28T10:42:25;4.00;99.90
48752;DHT22;34544;48.836;9.174;2023-02-28T10:45:16;4.10;99.90
48752;DHT22;34544;48.836;9.174;2023-02-28T10:48:04;4.30;99.90
48752;DHT22;34544;48.836;9.174;2023-02-28T10:53:15;4.80;99.90
48752;DHT22;34544;48.836;9.174;2023-02-28T10:55:41;5.00;99.90
48752;DHT22;34544;48.836;9.174;2023-02-28T10:58:24;5.00;99.90
48752;DHT22;34544;48.836;9.174;2023-02-28T11:00:51;5.10;99.90
48752;DHT22;34544;48.836;9.174;2023-02-28T11:03:32;5.30;99.90
48752;DHT22;34544;48.836;9.174;2023-02-28T11:06:04;5.50;99.90
48752;DHT22;34544;48.836;9.174;2023-02-28T11:08:31;5.70;99.90
48752;DHT22;34544;48.836;9.174;2023-02-28T11:10:59;5.80;99.90
48752;DHT22;34544;48.836;9.174;2023-02-28T11:13:32;5.70;99.90
48752;DHT22;34544;48.836;9.174;2023-02-28T11:16:03;5.70;99.90
48752;DHT22;34544;48.836;9.174;2023-02-28T11:18:32;5.70;99.90
48752;DHT22;34544;48.836;9.174;2023-02-28T11:21:01;5.80;99.90
48752;DHT22;34544;48.836;9.174;2023-02-28T11:23:30;6.00;99.90
48752;DHT22;34544;48.836;9.174;2023-02-28T11:26:00;6.10;99.90
48752;DHT22;34544;48.836;9.174;2023-02-28T11:33:49;6.40;99.90
48752;DHT22;34544;48.836;9.174;2023-02-28T11:36:22;6.40;99.90
48752;DHT22;34544;48.836;9.174;2023-02-28T11:38:54;6.60;99.90
48752;DHT22;34544;48.836;9.174;2023-02-28T11:41:33;6.80;99.90
48752;DHT22;34544;48.836;9.174;2023-02-28T11:46:51;7.10;99.90
48752;DHT22;34544;48.836;9.174;2023-02-28T11:55:17;7.60;99.90
48752;DHT22;34544;48.836;9.174;2023-02-28T12:00:38;8.00;98.50
48752;DHT22;34544;48.836;9.174;2023-02-28T12:06:18;8.50;98.20
48752;DHT22;34544;48.836;9.174;2023-02-28T12:11:52;9.10;97.40
48752;DHT22;34544;48.836;9.174;2023-02-28T12:14:28;9.90;96.00
48752;DHT22;34544;48.836;9.174;2023-02-28T12:17:05;10.70;96.00
48752;DHT22;34544;48.836;9.174;2023-02-28T12:20:00;11.10;93.50
48752;DHT22;34544;48.836;9.174;2023-02-28T12:22:28;11.40;92.90
48752;DHT22;34544;48.836;9.174;2023-02-28T12:27:23;12.40;91.20
48752;DHT22;34544;48.836;9.174;2023-02-28T12:30:00;12.60;90.20
48752;DHT22;34544;48.836;9.174;2023-02-28T12:32:39;12.70;90.50
48752;DHT22;34544;48.836;9.174;2023-02-28T12:35:13;13.10;90.20
48752;DHT22;34544;48.836;9.174;2023-02-28T12:38:01;13.40;87.30
48752;DHT22;34544;48.836;9.174;2023-02-28T12:40:53;13.40;85.60
48752;DHT22;34544;48.836;9.174;2023-02-28T12:43:19;13.20;86.50
48752;DHT22;34544;48.836;9.174;2023-02-28T12:46:02;13.00;86.70
48752;DHT22;34544;48.836;9.174;2023-02-28T12:48:55;12.50;85.10
48752;DHT22;34544;48.836;9.174;2023-02-28T12:51:23;12.20;87.50
48752;DHT22;34544;48.836;9.174;2023-02-28T12:54:01;12.70;87.00
48752;DHT22;34544;48.836;9.174;2023-02-28T12:56:45;13.40;85.30
48752;DHT22;34544;48.836;9.174;2023-02-28T12:59:34;13.50;84.60
48752;DHT22;34544;48.836;9.174;2023-02-28T13:05:16;14.20;82.30
48752;DHT22;34544;48.836;9.174;2023-02-28T13:10:24;15.30;79.90
48752;DHT22;34544;48.836;9.174;2023-02-28T13:12:53;15.50;80.00
48752;DHT22;34544;48.836;9.174;2023-02-28T13:15:24;15.50;79.60
48752;DHT22;34544;48.836;9.174;2023-02-28T13:17:58;15.30;79.40
48752;DHT22;34544;48.836;9.174;2023-02-28T13:20:26;15.00;79.10
48752;DHT22;34544;48.836;9.174;2023-02-28T13:22:54;14.90;78.10
48752;DHT22;34544;48.836;9.174;2023-02-28T13:27:58;14.50;78.00
48752;DHT22;34544;48.836;9.174;2023-02-28T13:36:22;14.60;78.30
48752;DHT22;34544;48.836;9.174;2023-02-28T13:39:43;14.80;77.70
48752;DHT22;34544;48.836;9.174;2023-02-28T13:41:44;15.30;78.40
48752;DHT22;34544;48.836;9.174;2023-02-28T13:44:14;16.00;77.60
48752;DHT22;34544;48.836;9.174;2023-02-28T13:57:47;16.80;73.50
48752;DHT22;34544;48.836;9.174;2023-02-28T14:00:33;16.90;73.10
48752;DHT22;34544;48.836;9.174;2023-02-28T14:03:15;16.90;72.80
48752;DHT22;34544;48.836;9.174;2023-02-28T14:05:44;16.70;74.50
48752;DHT22;34544;48.836;9.174;2023-02-28T14:08:20;16.80;73.20
48752;DHT22;34544;48.836;9.174;2023-02-28T14:10:49;17.00;72.30
48752;DHT22;34544;48.836;9.174;2023-02-28T14:13:44;17.00;72.10
48752;DHT22;34544;48.836;9.174;2023-02-28T14:16:14;16.60;72.90
48752;DHT22;34544;48.836;9.174;2023-02-28T14:18:47;16.70;73.10
48752;DHT22;34544;48.836;9.174;2023-02-28T14:21:27;16.70;72.40
48752;DHT22;34544;48.836;9.174;2023-02-28T14:24:25;16.40;71.10
48752;DHT22;34544;48.836;9.174;2023-02-28T14:27:47;16.30;72.40
48752;DHT22;34544;48.836;9.174;2023-02-28T14:30:49;16.50;71.80
48752;DHT22;34544;48.836;9.174;2023-02-28T14:33:31;16.40;72.60
48752;DHT22;34544;48.836;9.174;2023-02-28T14:36:24;16.50;72.40
48752;DHT22;34544;48.836;9.174;2023-02-28T14:38:53;16.80;71.70
48752;DHT22;34544;48.836;9.174;2023-02-28T14:41:33;16.80;70.50
48752;DHT22;34544;48.836;9.174;2023-02-28T14:44:14;16.50;71.70
48752;DHT22;34544;48.836;9.174;2023-02-28T14:46:41;16.30;71.90
48752;DHT22;34544;48.836;9.174;2023-02-28T14:49:17;16.40;72.40
48752;DHT22;34544;48.836;9.174;2023-02-28T14:51:43;16.30;71.90
48752;DHT22;34544;48.836;9.174;2023-02-28T14:54:14;16.30;71.60
48752;DHT22;34544;48.836;9.174;2023-02-28T14:56:41;16.50;71.00
48752;DHT22;34544;48.836;9.174;2023-02-28T14:59:31;16.80;70.80
48752;DHT22;34544;48.836;9.174;2023-02-28T15:02:20;16.70;70.20
48752;DHT22;34544;48.836;9.174;2023-02-28T15:04:57;16.50;70.50
48752;DHT22;34544;48.836;9.174;2023-02-28T15:07:23;16.10;70.80
48752;DHT22;34544;48.836;9.174;2023-02-28T15:12:40;15.60;71.60
48752;DHT22;34544;48.836;9.174;2023-02-28T15:15:15;15.40;71.80
48752;DHT22;34544;48.836;9.174;2023-02-28T15:17:44;15.00;72.70
48752;DHT22;34544;48.836;9.174;2023-02-28T15:20:12;14.40;73.10
48752;DHT22;34544;48.836;9.174;2023-02-28T15:22:39;13.80;74.90
48752;DHT22;34544;48.836;9.174;2023-02-28T15:25:06;13.20;76.00
48752;DHT22;34544;48.836;9.174;2023-02-28T15:27:37;12.60;77.20
48752;DHT22;34544;48.836;9.174;2023-02-28T15:30:08;12.00;78.30
48752;DHT22;34544;48.836;9.174;2023-02-28T15:32:38;11.30;79.20
48752;DHT22;34544;48.836;9.174;2023-02-28T15:35:40;10.80;81.10
48752;DHT22;34544;48.836;9.174;2023-02-28T15:38:15;10.20;82.30
48752;DHT22;34544;48.836;9.174;2023-02-28T15:40:49;9.80;83.40
48752;DHT22;34544;48.836;9.174;2023-02-28T15:43:33;9.40;84.30
48752;DHT22;34544;48.836;9.174;2023-02-28T15:46:04;9.00;85.50
48752;DHT22;34544;48.836;9.174;2023-02-28T15:48:53;8.70;86.30
48752;DHT22;34544;48.836;9.174;2023-02-28T15:51:32;8.50;87.30
48752;DHT22;34544;48.836;9.174;2023-02-28T15:54:12;8.30;88.10
48752;DHT22;34544;48.836;9.174;2023-02-28T15:56:45;8.10;88.80
48752;DHT22;34544;48.836;9.174;2023-02-28T15:59:21;7.90;89.70
48752;DHT22;34544;48.836;9.174;2023-02-28T16:02:21;7.80;90.10
48752;DHT22;34544;48.836;9.174;2023-02-28T16:07:38;7.50;90.60
48752;DHT22;34544;48.836;9.174;2023-02-28T16:10:05;7.40;90.80
48752;DHT22;34544;48.836;9.174;2023-02-28T16:12:34;7.30;90.80
48752;DHT22;34544;48.836;9.174;2023-02-28T16:15:23;7.10;90.80
48752;DHT22;34544;48.836;9.174;2023-02-28T16:17:48;6.90;91.30
48752;DHT22;34544;48.836;9.174;2023-02-28T16:20:24;6.80;91.40
48752;DHT22;34544;48.836;9.174;2023-02-28T16:22:50;6.70;91.90
48752;DHT22;34544;48.836;9.174;2023-02-28T16:25:19;6.70;92.00
48752;DHT22;34544;48.836;9.174;2023-02-28T16:27:48;6.50;92.30
48752;DHT22;34544;48.836;9.174;2023-02-28T16:30:23;6.40;92.60
48752;DHT22;34544;48.836;9.174;2023-02-28T16:32:50;6.30;92.70
48752;DHT22;34544;48.836;9.174;2023-02-28T16:35:17;6.20;92.90
48752;DHT22;34544;48.836;9.174;2023-02-28T16:37:43;6.10;93.30
48752;DHT22;34544;48.836;9.174;2023-02-28T16:40:18;6.00;93.70
48752;DHT22;34544;48.836;9.174;2023-02-28T16:42:46;5.90;94.00
48752;DHT22;34544;48.836;9.174;2023-02-28T16:45:17;5.80;94.30
48752;DHT22;34544;48.836;9.174;2023-02-28T16:47:45;5.70;94.60
48752;DHT22;34544;48.836;9.174;2023-02-28T16:50:29;5.60;95.10
48752;DHT22;34544;48.836;9.174;2023-02-28T16:52:56;5.40;95.20
48752;DHT22;34544;48.836;9.174;2023-02-28T16:55:25;5.40;95.70
48752;DHT22;34544;48.836;9.174;2023-02-28T16:57:57;5.20;96.10
48752;DHT22;34544;48.836;9.174;2023-02-28T17:00:23;5.10;96.70
48752;DHT22;34544;48.836;9.174;2023-02-28T17:02:50;5.00;96.90
48752;DHT22;34544;48.836;9.174;2023-02-28T17:05:16;4.80;97.60
48752;DHT22;34544;48.836;9.174;2023-02-28T17:07:44;4.70;98.20
48752;DHT22;34544;48.836;9.174;2023-02-28T17:10:20;4.60;98.60
48752;DHT22;34544;48.836;9.174;2023-02-28T17:12:46;4.40;99.00
48752;DHT22;34544;48.836;9.174;2023-02-28T17:15:14;4.30;99.60
48752;DHT22;34544;48.836;9.174;2023-02-28T17:17:40;4.20;99.90
48752;DHT22;34544;48.836;9.174;2023-02-28T17:20:15;4.10;99.90
48752;DHT22;34544;48.836;9.174;2023-02-28T17:22:41;3.90;99.90
48752;DHT22;34544;48.836;9.174;2023-02-28T17:25:08;3.80;99.90
48752;DHT22;34544;48.836;9.174;2023-02-28T17:27:34;3.80;99.90
48752;DHT22;34544;48.836;9.174;2023-02-28T17:30:00;3.70;99.90
48752;DHT22;34544;48.836;9.174;2023-02-28T17:32:26;3.60;99.90
48752;DHT22;34544;48.836;9.174;2023-02-28T17:34:53;3.50;99.90